createdAt,value
2023-01-30T00:12:45.333Z,-1.04
2023-01-30T00:32:45.496Z,-1.13
2023-01-30T00:52:45.508Z,-1.19
2023-01-30T01:12:45.505Z,-1.12
2023-01-30T01:32:45.355Z,-1.17
2023-01-30T02:12:45.463Z,-1.28
2023-01-30T02:32:45.635Z,-1.23
2023-01-30T02:52:45.676Z,-1.13
2023-01-30T03:12:45.646Z,-1.15
2023-01-30T03:32:45.641Z,-1.23
2023-01-30T03:52:45.601Z,-1.11
2023-01-30T04:12:45.618Z,-0.98
2023-01-30T04:32:45.615Z,-0.96
2023-01-30T04:52:45.747Z,-0.94
2023-01-30T05:12:45.652Z,-0.95
2023-01-30T05:32:45.507Z,-1.02
2023-01-30T05:52:45.616Z,-1.13
2023-01-30T06:12:45.532Z,-0.75
2023-01-30T06:32:45.541Z,-0.34
2023-01-30T06:52:45.702Z,0.07
2023-01-30T07:12:45.684Z,0.34
2023-01-30T07:32:45.604Z,0.56
2023-01-30T07:52:45.545Z,0.88
2023-01-30T08:12:45.725Z,1.13
2023-01-30T08:32:45.559Z,1.10
2023-01-30T08:52:45.672Z,1.41
2023-01-30T09:12:45.670Z,1.73
2023-01-30T09:32:45.553Z,2.38
2023-01-30T09:52:45.571Z,2.30
2023-01-30T10:12:45.654Z,2.31
2023-01-30T10:32:45.603Z,2.71
2023-01-30T10:52:45.579Z,2.69
2023-01-30T11:12:45.590Z,2.98
2023-01-30T11:32:45.595Z,3.10
2023-01-30T11:52:45.595Z,3.30
2023-01-30T12:12:45.686Z,3.19
2023-01-30T12:32:45.663Z,3.07
2023-01-30T12:52:45.557Z,3.19
2023-01-30T13:12:45.645Z,3.20
2023-01-30T13:32:45.505Z,3.20
2023-01-30T13:52:45.515Z,3.11
2023-01-30T14:12:45.558Z,2.92
2023-01-30T14:32:45.674Z,2.73
2023-01-30T14:52:45.525Z,2.67
2023-01-30T15:12:45.543Z,2.49
2023-01-30T15:32:45.637Z,2.45
2023-01-30T15:52:45.676Z,2.29
2023-01-30T16:12:45.567Z,2.28
2023-01-30T16:32:45.615Z,2.22
2023-01-30T16:52:45.574Z,2.06
2023-01-30T17:12:45.576Z,2.27
2023-01-30T17:32:45.481Z,2.34
2023-01-30T17:52:45.489Z,2.36
2023-01-30T18:12:45.666Z,2.43
2023-01-30T18:32:45.617Z,2.48
2023-01-30T18:52:45.539Z,2.60
2023-01-30T19:12:45.635Z,2.61
2023-01-30T19:32:45.729Z,2.52
2023-01-30T19:52:45.540Z,2.64
2023-01-30T20:12:45.671Z,2.66
2023-01-30T20:32:45.543Z,2.75
2023-01-30T20:52:45.551Z,2.75
2023-01-30T21:12:45.744Z,2.81
2023-01-30T21:32:45.563Z,2.79
2023-01-30T21:52:45.726Z,2.74
2023-01-30T22:12:45.468Z,2.74
2023-01-30T22:32:45.473Z,2.62
2023-01-30T22:52:45.476Z,2.60
2023-01-30T23:12:45.471Z,2.57
2023-01-30T23:32:45.468Z,2.61
2023-01-30T23:52:45.480Z,2.65
